Time;durP1;ratioP1;P1;durP2;ratioP2;P2;SDS_P1;SDS_P2;PMS_P1;PMS_P2;Temp;Humidity;BMP_temperature;BMP_pressure;BME280_temperature;BME280_humidity;BME280_pressure;Samples;Min_cycle;Max_cycle;Signal;HPM_P1;HPM_P2
2023/09/28 04:02:32;;;;;;;24.30;11.70;;;;;;;11.70;70.66;99757.91;106591;1263;96503;-76
2023/09/28 04:04:59;;;;;;;21.80;10.50;;;;;;;11.69;70.77;99756.88;107579;1250;97243;-77
2023/09/28 04:07:26;;;;;;;22.10;11.50;;;;;;;11.66;70.84;99758.11;108213;1241;96737;-75
2023/09/28 04:09:56;;;;;;;20.50;10.10;;;;;;;11.66;70.86;99759.21;108254;1241;97495;-77
2023/09/28 04:12:24;;;;;;;22.20;10.70;;;;;;;11.61;70.78;99757.75;108260;1240;110387;-72
2023/09/28 04:14:51;;;;;;;23.10;11.20;;;;;;;11.52;70.71;99757.07;108262;1246;96653;-78
2023/09/28 04:17:20;;;;;;;21.90;11.30;;;;;;;11.43;70.84;99757.66;108954;1238;109363;-73
2023/09/28 04:19:47;;;;;;;23.40;10.80;;;;;;;11.41;70.95;99759.92;109181;1237;96734;-74
2023/09/28 04:22:19;;;;;;;22.50;11.00;;;;;;;11.38;70.93;99760.11;109408;1240;96597;-75
2023/09/28 04:24:48;;;;;;;24.40;10.80;;;;;;;11.32;71.00;99760.67;111256;1233;110139;-74
2023/09/28 04:27:16;;;;;;;20.70;10.10;;;;;;;11.31;71.06;99764.48;111270;1232;96437;-75
2023/09/28 04:29:43;;;;;;;20.90;9.50;;;;;;;11.35;71.23;99765.83;111238;1232;107059;-74
2023/09/28 04:32:14;;;;;;;24.40;10.80;;;;;;;11.40;71.11;99765.83;111149;1232;94508;-75
2023/09/28 04:34:41;;;;;;;20.90;10.00;;;;;;;11.40;71.17;99767.24;111343;1231;94280;-75
2023/09/28 04:37:08;;;;;;;22.00;10.60;;;;;;;11.39;71.08;99768.23;111277;1231;94558;-75
2023/09/28 04:39:44;;;;;;;23.20;10.70;;;;;;;11.39;71.22;99769.46;111277;1232;96528;-75
2023/09/28 04:42:12;;;;;;;22.20;10.90;;;;;;;11.41;71.19;99769.37;111231;1232;107517;-75
2023/09/28 04:44:45;;;;;;;21.60;10.90;;;;;;;11.42;71.25;99773.88;111396;1237;94230;-75
2023/09/28 04:47:12;;;;;;;22.30;11.10;;;;;;;11.45;71.19;99772.46;111541;1232;94210;-74
2023/09/28 04:49:41;;;;;;;24.90;10.20;;;;;;;11.50;71.44;99777.49;111568;1232;94338;-74
2023/09/28 04:52:10;;;;;;;25.50;11.30;;;;;;;11.58;71.61;99780.33;111345;1232;95851;-74
2023/09/28 04:54:37;;;;;;;22.40;11.40;;;;;;;11.64;71.51;99777.59;111284;1232;94453;-73
2023/09/28 04:57:04;;;;;;;25.20;13.00;;;;;;;11.70;71.71;99778.48;111330;1231;94299;-73
2023/09/28 04:59:39;;;;;;;25.50;12.70;;;;;;;11.75;71.69;99779.02;111410;1231;187803;-73
2023/09/28 05:02:07;;;;;;;25.30;12.90;;;;;;;11.82;71.70;99778.41;111505;1231;109564;-75
2023/09/28 05:04:38;;;;;;;27.80;13.20;;;;;;;11.89;71.74;99779.37;111370;1232;95507;-74
2023/09/28 05:07:05;;;;;;;23.60;12.60;;;;;;;11.96;71.74;99784.39;111292;1232;107519;-73
2023/09/28 05:09:44;;;;;;;28.90;12.40;;;;;;;12.03;71.83;99782.38;111211;1232;94417;-76
2023/09/28 05:12:11;;;;;;;25.50;13.10;;;;;;;12.07;71.85;99781.02;111342;1232;94484;-75
2023/09/28 05:14:38;;;;;;;26.30;12.20;;;;;;;12.12;71.84;99783.70;111235;1232;95197;-75
2023/09/28 05:17:06;;;;;;;26.90;13.60;;;;;;;12.18;71.92;99781.00;111214;1239;94653;-74
2023/09/28 05:19:33;;;;;;;27.00;12.70;;;;;;;12.24;72.03;99780.79;111218;1231;94611;-75
2023/09/28 05:21:59;;;;;;;25.10;13.20;;;;;;;12.29;72.02;99784.55;111147;1233;94454;-75
2023/09/28 05:24:31;;;;;;;27.60;13.70;;;;;;;12.32;72.04;99784.70;111228;1230;94671;-75
2023/09/28 05:26:58;;;;;;;25.30;12.30;;;;;;;12.35;72.09;99784.65;111215;1239;110193;-75
2023/09/28 05:29:25;;;;;;;27.10;13.60;;;;;;;12.39;72.15;99784.44;111200;1232;94482;-75
2023/09/28 05:31:51;;;;;;;26.60;13.00;;;;;;;12.41;72.26;99787.66;111148;1232;94534;-74
2023/09/28 05:34:21;;;;;;;29.50;13.20;;;;;;;12.44;72.26;99783.48;111107;1237;94444;-75
2023/09/28 05:36:48;;;;;;;28.90;15.10;;;;;;;12.49;72.32;99785.84;111182;1232;94608;-74
2023/09/28 05:39:15;;;;;;;32.60;15.00;;;;;;;12.54;72.30;99788.73;111249;1232;94494;-76
2023/09/28 05:41:45;;;;;;;29.90;14.90;;;;;;;12.59;72.47;99791.58;111202;1232;94425;-74
2023/09/28 05:44:12;;;;;;;32.40;15.60;;;;;;;12.63;72.38;99792.70;111208;1231;94557;-75
2023/09/28 05:46:40;;;;;;;30.20;15.60;;;;;;;12.67;72.39;99795.63;111272;1232;94249;-75
2023/09/28 05:49:07;;;;;;;32.70;17.00;;;;;;;12.68;72.49;99795.55;111323;1231;94198;-75
2023/09/28 05:51:33;;;;;;;31.90;16.90;;;;;;;12.71;72.56;99794.62;111309;1231;94242;-75
2023/09/28 05:54:00;;;;;;;31.80;16.90;;;;;;;12.77;72.61;99795.13;111297;1232;94319;-75
2023/09/28 05:56:26;;;;;;;27.60;13.60;;;;;;;12.84;72.63;99793.78;111470;1232;94313;-75
2023/09/28 05:58:53;;;;;;;29.10;15.10;;;;;;;12.89;72.64;99794.83;111261;1232;94180;-75
2023/09/28 06:01:27;;;;;;;30.90;14.90;;;;;;;12.95;72.73;99788.88;111353;1231;110945;-74
2023/09/28 06:03:57;;;;;;;30.70;15.30;;;;;;;13.01;72.78;99790.80;111351;1231;95213;-75
2023/09/28 06:06:24;;;;;;;31.30;17.10;;;;;;;13.08;72.87;99791.15;111265;1232;106887;-74
2023/09/28 06:08:52;;;;;;;33.00;16.30;;;;;;;13.17;73.03;99792.34;111307;1232;94544;-75
2023/09/28 06:11:22;;;;;;;33.30;18.00;;;;;;;13.23;72.86;99791.16;111273;1232;95028;-74
2023/09/28 06:13:49;;;;;;;31.70;17.90;;;;;;;13.30;72.94;99792.81;111308;1231;109752;-76
2023/09/28 06:16:36;;;;;;;34.30;17.30;;;;;;;13.38;73.08;99793.50;111437;1231;95385;-75
2023/09/28 06:19:03;;;;;;;30.60;15.70;;;;;;;13.45;73.14;99792.80;111305;1232;107262;-75
2023/09/28 06:21:30;;;;;;;29.40;15.40;;;;;;;13.54;73.12;99793.26;111241;1239;94310;-74
2023/09/28 06:23:56;;;;;;;33.60;15.50;;;;;;;13.62;73.22;99794.40;111298;1231;94407;-75
2023/09/28 06:26:23;;;;;;;27.80;13.30;;;;;;;13.70;73.25;99796.15;111251;1234;94334;-74
2023/09/28 06:29:08;;;;;;;25.60;12.60;;;;;;;13.80;73.34;99799.36;111443;1234;95322;-75
2023/09/28 06:31:35;;;;;;;28.50;13.80;;;;;;;13.89;73.36;99797.79;111252;1232;94592;-75
2023/09/28 06:34:02;;;;;;;30.80;13.60;;;;;;;13.97;73.35;99799.48;111297;1232;94245;-75
2023/09/28 06:36:30;;;;;;;27.70;13.40;;;;;;;14.06;73.41;99796.52;111307;1232;94199;-74
2023/09/28 06:38:59;;;;;;;26.10;13.10;;;;;;;14.13;73.42;99795.23;111387;1232;109688;-75
2023/09/28 06:41:30;;;;;;;26.60;12.80;;;;;;;14.23;73.57;99797.44;111231;1232;95186;-74
2023/09/28 06:43:57;;;;;;;25.80;11.90;;;;;;;14.31;73.54;99798.90;111202;1232;107509;-75
2023/09/28 06:46:24;;;;;;;25.10;11.60;;;;;;;14.39;73.58;99798.83;111295;1232;94292;-75
2023/09/28 06:48:51;;;;;;;24.20;11.60;;;;;;;14.48;73.68;99795.83;111271;1232;94238;-75
2023/09/28 06:51:22;;;;;;;20.50;10.30;;;;;;;14.57;73.74;99797.63;111289;1239;94569;-75
2023/09/28 06:53:50;;;;;;;17.20;8.80;;;;;;;14.66;73.76;99800.01;111320;1231;94504;-75
2023/09/28 06:56:19;;;;;;;19.50;8.90;;;;;;;14.75;73.78;99800.73;111269;1232;107507;-74
2023/09/28 06:58:46;;;;;;;18.60;8.50;;;;;;;14.84;73.74;99797.75;111312;1231;94199;-74
2023/09/28 07:01:12;;;;;;;20.40;7.90;;;;;;;14.92;73.73;99794.05;111403;1232;94592;-75
2023/09/28 07:03:40;;;;;;;19.70;8.60;;;;;;;15.01;73.86;99794.40;111397;1231;94570;-74
2023/09/28 07:06:06;;;;;;;17.20;7.90;;;;;;;15.12;73.92;99791.96;111294;1232;94456;-75
2023/09/28 07:08:33;;;;;;;20.90;8.00;;;;;;;15.22;73.92;99792.96;111297;1232;94607;-74
2023/09/28 07:11:02;;;;;;;19.30;8.10;;;;;;;15.31;73.85;99794.73;111324;1237;94202;-75
2023/09/28 07:13:31;;;;;;;18.70;8.30;;;;;;;15.41;74.11;99796.98;111192;1232;94204;-74
2023/09/28 07:15:58;;;;;;;16.30;7.10;;;;;;;15.51;74.01;99798.99;111302;1232;111220;-75
2023/09/28 07:18:25;;;;;;;16.20;7.50;;;;;;;15.60;73.87;99801.17;111383;1232;94692;-74
2023/09/28 07:20:52;;;;;;;18.30;8.30;;;;;;;15.68;73.96;99801.78;111226;1232;94218;-75
2023/09/28 07:23:19;;;;;;;18.50;7.30;;;;;;;15.76;74.04;99797.30;111284;1232;94574;-75
2023/09/28 07:25:46;;;;;;;16.40;8.00;;;;;;;15.85;74.11;99798.79;111272;1232;94192;-75
2023/09/28 07:28:12;;;;;;;15.70;7.50;;;;;;;15.96;74.07;99797.54;111337;1232;94234;-74
2023/09/28 07:30:39;;;;;;;16.50;7.20;;;;;;;16.07;74.19;99796.62;111435;1232;94346;-75
2023/09/28 07:33:07;;;;;;;18.40;7.60;;;;;;;16.17;74.06;99794.50;111314;1234;94172;-75
2023/09/28 07:35:34;;;;;;;17.00;7.80;;;;;;;16.24;74.12;99792.65;111264;1232;94208;-75
2023/09/28 07:38:04;;;;;;;18.00;8.00;;;;;;;16.31;74.04;99795.14;111327;1231;108749;-75
2023/09/28 07:40:31;;;;;;;16.20;7.40;;;;;;;16.39;74.14;99795.16;111306;1232;95400;-75
2023/09/28 07:43:14;;;;;;;18.50;7.20;;;;;;;16.51;74.04;99793.46;111145;1231;107680;-75
2023/09/28 07:45:41;;;;;;;17.50;8.00;;;;;;;16.61;74.04;99796.89;111268;1232;94514;-75
2023/09/28 07:48:11;;;;;;;18.50;7.70;;;;;;;16.68;73.92;99800.23;111324;1238;94620;-75
2023/09/28 07:50:38;;;;;;;17.40;7.20;;;;;;;16.75;73.85;99800.34;111383;1230;109785;-75
2023/09/28 07:53:08;;;;;;;15.00;7.00;;;;;;;16.83;73.88;99801.95;111433;1232;94897;-75
2023/09/28 07:55:34;;;;;;;17.80;7.40;;;;;;;16.93;73.95;99801.45;111311;1231;94474;-74
2023/09/28 07:58:01;;;;;;;15.40;6.70;;;;;;;17.00;73.86;99801.77;111231;1232;94206;-74
2023/09/28 08:00:48;;;;;;;15.30;7.30;;;;;;;17.08;73.88;99802.31;111290;1232;94593;-75
2023/09/28 08:03:17;;;;;;;17.40;6.70;;;;;;;17.18;73.80;99800.21;111327;1231;94265;-75
2023/09/28 08:05:46;;;;;;;19.80;7.40;;;;;;;17.26;73.90;99797.89;111369;1232;94442;-75
2023/09/28 08:08:12;;;;;;;17.10;7.30;;;;;;;17.35;73.84;99796.02;111298;1237;94544;-75
2023/09/28 08:10:44;;;;;;;16.70;7.20;;;;;;;17.44;73.83;99793.73;111316;1232;94598;-75
2023/09/28 08:13:11;;;;;;;15.70;7.00;;;;;;;17.55;73.85;99793.51;111358;1230;94202;-75
2023/09/28 08:15:44;;;;;;;17.30;7.70;;;;;;;17.63;73.89;99796.73;111392;1232;109885;-74
2023/09/28 08:18:11;;;;;;;17.20;7.20;;;;;;;17.68;73.71;99797.13;111375;1236;95641;-74
2023/09/28 08:20:40;;;;;;;16.80;7.40;;;;;;;17.78;73.84;99801.08;111304;1231;94187;-75
2023/09/28 08:23:28;;;;;;;16.90;7.40;;;;;;;17.87;73.72;99796.89;111366;1231;94226;-75
2023/09/28 08:25:55;;;;;;;16.40;6.50;;;;;;;17.97;73.58;99798.30;111261;1237;94513;-75
2023/09/28 08:28:24;;;;;;;18.00;7.50;;;;;;;18.05;73.58;99795.51;111421;1237;109683;-75
2023/09/28 08:30:54;;;;;;;19.90;7.10;;;;;;;18.14;73.75;99792.44;111328;1230;95063;-75
2023/09/28 08:33:25;;;;;;;21.00;7.60;;;;;;;18.24;73.41;99792.96;111335;1233;107127;-75
2023/09/28 08:35:52;;;;;;;17.70;6.90;;;;;;;18.31;73.56;99789.65;111461;1230;94446;-75
2023/09/28 08:38:20;;;;;;;17.50;6.60;;;;;;;18.40;73.45;99790.98;111569;1232;94175;-75
2023/09/28 08:41:00;;;;;;;15.90;6.90;;;;;;;18.49;73.37;99790.48;111198;1232;110833;-75
2023/09/28 08:43:43;;;;;;;14.40;7.20;;;;;;;18.55;73.29;99787.59;111357;1231;94755;-75
2023/09/28 08:46:20;;;;;;;21.20;6.40;;;;;;;18.63;73.35;99788.15;111341;1232;107265;-74
2023/09/28 08:49:07;;;;;;;17.40;6.80;;;;;;;18.73;73.31;99789.69;111267;1232;94229;-74
2023/09/28 08:51:36;;;;;;;15.60;6.20;;;;;;;18.84;73.07;99796.14;111454;1230;94188;-75
2023/09/28 08:54:05;;;;;;;16.40;6.10;;;;;;;18.98;73.23;99792.73;111380;1232;109719;-76
2023/09/28 08:56:38;;;;;;;14.70;6.50;;;;;;;19.04;72.99;99791.27;111241;1237;95689;-75
2023/09/28 08:59:05;;;;;;;;;;;;;;;19.10;72.86;99794.98;111255;1232;107597;-75
2023/09/28 09:01:32;;;;;;;16.20;6.00;;;;;;;19.17;72.88;99790.86;111398;1231;94303;-75
2023/09/28 09:04:03;;;;;;;17.20;6.40;;;;;;;19.24;72.98;99790.73;111364;1232;94198;-75
2023/09/28 09:06:31;;;;;;;17.10;7.20;;;;;;;19.32;72.77;99790.16;111263;1236;108802;-75
2023/09/28 09:09:06;;;;;;;16.80;6.30;;;;;;;19.37;72.67;99787.68;111252;1232;95657;-75
2023/09/28 09:11:37;;;;;;;20.60;8.50;;;;;;;19.43;72.63;99783.70;111327;1230;107380;-75
2023/09/28 09:14:03;;;;;;;16.30;6.90;;;;;;;19.51;72.52;99784.68;111261;1236;94180;-75
2023/09/28 09:16:30;;;;;;;16.40;7.20;;;;;;;19.56;72.37;99782.94;111276;1232;94553;-75
2023/09/28 09:18:58;;;;;;;17.50;6.60;;;;;;;19.60;72.35;99783.30;111280;1232;94526;-75
2023/09/28 09:21:39;;;;;;;20.80;7.60;;;;;;;19.65;72.07;99777.02;111300;1231;94263;-76
2023/09/28 09:24:10;;;;;;;17.50;7.40;;;;;;;19.71;72.25;99777.13;111234;1232;107650;-75
2023/09/28 09:26:42;;;;;;;17.10;7.60;;;;;;;19.77;72.10;99778.86;111323;1232;94191;-75
2023/09/28 09:29:10;;;;;;;18.40;7.20;;;;;;;19.86;72.09;99780.36;111237;1232;94637;-75
2023/09/28 09:31:39;;;;;;;19.30;8.10;;;;;;;19.93;71.99;99777.33;111361;1232;109476;-75
2023/09/28 09:34:14;;;;;;;16.70;7.10;;;;;;;19.99;71.93;99777.56;111354;1230;95456;-75
2023/09/28 09:36:43;;;;;;;16.20;6.70;;;;;;;20.04;71.69;99772.95;111257;1230;107817;-76
2023/09/28 10:03:35;;;;;;;15.00;7.00;;;;;;;20.54;70.63;99770.41;102874;1293;635751;-77
2023/09/28 10:06:03;;;;;;;17.40;7.60;;;;;;;20.59;70.74;99767.91;105136;1270;94403;-75
2023/09/28 10:08:32;;;;;;;17.40;6.60;;;;;;;20.60;70.37;99768.42;104555;1270;94412;-74
2023/09/28 10:11:07;;;;;;;15.80;6.80;;;;;;;20.59;70.47;99769.92;106976;1263;106856;-74
2023/09/28 10:13:37;;;;;;;18.40;7.80;;;;;;;20.59;70.23;99769.94;106783;1263;95483;-76
2023/09/28 10:16:07;;;;;;;16.50;7.10;;;;;;;20.62;70.38;99769.95;104889;1264;144405;-72
2023/09/28 10:18:36;;;;;;;19.10;7.80;;;;;;;20.66;70.22;99767.55;105113;1256;94350;-75
2023/09/28 10:21:07;;;;;;;20.30;7.70;;;;;;;20.73;70.16;99765.22;105455;1257;95226;-73
2023/09/28 10:23:35;;;;;;;17.90;7.50;;;;;;;20.79;69.78;99764.45;105035;1264;105576;-75
2023/09/28 10:26:11;;;;;;;17.40;6.40;;;;;;;20.87;69.80;99764.58;105587;1260;94716;-75
2023/09/28 10:29:06;;;;;;;17.30;7.00;;;;;;;20.90;69.62;99764.80;105306;1260;107362;-75
2023/09/28 10:31:38;;;;;;;16.90;6.60;;;;;;;20.95;69.46;99762.29;105381;1257;95326;-76
2023/09/28 10:34:30;;;;;;;17.60;7.10;;;;;;;20.95;69.40;99759.68;105309;1257;96170;-74
2023/09/28 10:37:18;;;;;;;19.60;7.70;;;;;;;20.94;69.22;99759.98;105427;1263;108954;-75
2023/09/28 10:39:54;;;;;;;17.50;7.00;;;;;;;20.99;69.27;99761.98;105679;1260;96130;-75
2023/09/28 10:42:22;;;;;;;15.70;6.40;;;;;;;21.04;69.13;99762.17;105416;1257;107628;-76
2023/09/28 10:44:52;;;;;;;15.60;6.70;;;;;;;21.06;69.06;99760.56;105176;1260;95244;-75
2023/09/28 10:47:21;;;;;;;17.20;7.40;;;;;;;21.07;68.83;99758.58;105642;1254;95265;-75
2023/09/28 10:50:10;;;;;;;14.30;6.50;;;;;;;21.16;68.76;99757.73;105530;1253;108486;-76
2023/09/28 10:52:38;;;;;;;16.50;7.30;;;;;;;21.26;68.68;99756.30;106363;1253;95320;-75
2023/09/28 10:55:24;;;;;;;16.40;6.90;;;;;;;21.31;68.33;99753.75;105197;1254;107220;-75
2023/09/28 10:57:53;;;;;;;18.00;7.30;;;;;;;21.32;68.43;99749.49;105831;1258;95343;-76
2023/09/28 11:00:23;;;;;;;17.30;6.90;;;;;;;21.34;68.20;99747.34;105920;1253;95299;-74
2023/09/28 11:02:52;;;;;;;17.00;7.00;;;;;;;21.34;68.22;99748.23;105970;1254;109059;-75
2023/09/28 11:05:23;;;;;;;15.00;6.80;;;;;;;21.34;68.20;99745.85;105411;1257;96465;-77
2023/09/28 11:07:51;;;;;;;15.70;6.70;;;;;;;21.36;68.04;99746.88;105876;1252;107653;-75
2023/09/28 11:10:28;;;;;;;14.20;6.60;;;;;;;21.39;68.02;99746.41;105856;1256;96025;-76
2023/09/28 11:12:57;;;;;;;15.90;6.80;;;;;;;21.41;67.92;99746.77;105676;1253;95291;-75
2023/09/28 11:15:29;;;;;;;16.10;7.10;;;;;;;21.47;67.80;99744.92;106251;1256;109319;-76
2023/09/28 11:17:58;;;;;;;17.70;6.90;;;;;;;21.53;67.82;99745.66;105997;1256;95744;-76
2023/09/28 11:20:28;;;;;;;16.80;7.10;;;;;;;21.59;67.38;99738.54;105957;1254;107627;-75
2023/09/28 11:23:00;;;;;;;18.00;7.30;;;;;;;21.65;67.28;99735.55;106330;1251;95288;-75
2023/09/28 11:25:28;;;;;;;15.90;6.70;;;;;;;21.72;67.33;99736.10;105961;1254;95275;-75
2023/09/28 11:28:13;;;;;;;15.20;7.00;;;;;;;21.75;66.91;99731.58;105704;1256;108518;-76
2023/09/28 11:30:42;;;;;;;16.70;6.60;;;;;;;21.77;67.04;99731.06;105733;1250;96178;-76
2023/09/28 11:33:11;;;;;;;15.20;6.30;;;;;;;21.75;66.91;99724.26;105804;1254;107994;-76
2023/09/28 11:35:43;;;;;;;14.60;6.90;;;;;;;21.74;66.95;99725.62;106724;1251;95320;-76
2023/09/28 11:38:11;;;;;;;15.60;6.40;;;;;;;21.79;67.07;99722.91;105570;1257;95244;-76
2023/09/28 11:40:39;;;;;;;16.00;6.50;;;;;;;21.79;66.92;99722.68;105898;1253;108593;-75
2023/09/28 11:43:11;;;;;;;16.40;6.90;;;;;;;21.78;66.69;99722.04;105832;1254;95220;-75
2023/09/28 11:45:42;;;;;;;13.80;6.40;;;;;;;21.77;66.44;99720.73;105703;1251;107300;-75
2023/09/28 11:48:10;;;;;;;16.60;6.60;;;;;;;21.75;66.56;99721.48;105562;1257;95339;-74
2023/09/28 11:50:42;;;;;;;15.40;7.20;;;;;;;21.75;66.60;99718.77;105514;1253;95188;-76
2023/09/28 11:53:10;;;;;;;27.20;7.40;;;;;;;21.73;66.42;99717.18;105501;1273;109352;-74
2023/09/28 11:55:39;;;;;;;17.40;6.50;;;;;;;21.72;66.44;99714.20;106026;1251;95554;-76
2023/09/28 11:58:13;;;;;;;49.40;9.30;;;;;;;21.69;66.19;99714.67;105408;1256;107258;-75
2023/09/28 12:00:41;;;;;;;19.00;7.40;;;;;;;21.69;66.27;99709.64;105416;1254;95236;-75
2023/09/28 12:03:09;;;;;;;18.20;7.70;;;;;;;21.69;66.11;99710.89;105864;1256;96173;-74
2023/09/28 12:05:37;;;;;;;14.70;6.90;;;;;;;21.72;66.18;99708.30;106561;1251;108542;-76
2023/09/28 12:08:07;;;;;;;20.00;7.00;;;;;;;21.79;66.24;99705.74;105655;1250;95498;-75
2023/09/28 12:10:37;;;;;;;16.60;7.20;;;;;;;21.81;65.81;99702.96;105824;1251;106561;-76
2023/09/28 12:13:05;;;;;;;16.50;6.90;;;;;;;21.83;65.79;99702.92;105791;1256;95224;-75
2023/09/28 12:15:37;;;;;;;19.40;7.90;;;;;;;21.83;65.66;99701.07;105563;1254;96085;-76
2023/09/28 12:18:05;;;;;;;16.80;7.10;;;;;;;21.87;65.78;99699.44;106118;1253;108416;-76
2023/09/28 12:20:33;;;;;;;15.60;6.70;;;;;;;21.91;65.73;99700.55;106078;1254;96184;-77
2023/09/28 12:23:03;;;;;;;17.00;6.60;;;;;;;21.93;65.58;99700.02;105814;1254;107588;-75
2023/09/28 12:25:36;;;;;;;15.60;7.10;;;;;;;21.91;65.68;99697.52;105714;1257;95223;-76
2023/09/28 12:28:04;;;;;;;16.90;6.90;;;;;;;21.90;65.52;99702.48;105846;1251;95317;-75
2023/09/28 12:30:36;;;;;;;19.60;7.00;;;;;;;21.91;65.39;99701.34;105639;1254;108103;-75
2023/09/28 12:33:08;;;;;;;17.40;7.20;;;;;;;21.94;65.39;99702.26;106047;1251;95181;-76
2023/09/28 12:35:39;;;;;;;19.00;6.90;;;;;;;21.97;65.27;99702.87;105741;1254;107812;-76
2023/09/28 12:38:07;;;;;;;19.70;6.50;;;;;;;21.99;65.09;99700.93;108557;1251;94041;-74
2023/09/28 12:40:36;;;;;;;13.30;6.70;;;;;;;22.00;65.07;99701.08;107349;1250;94845;-76
2023/09/28 12:43:05;;;;;;;14.20;6.60;;;;;;;22.00;64.95;99701.82;106001;1256;108125;-77
2023/09/28 12:45:35;;;;;;;13.90;5.80;;;;;;;21.99;64.86;99697.73;105844;1253;96613;-74
2023/09/28 12:48:05;;;;;;;16.30;7.20;;;;;;;22.02;64.75;99697.77;106047;1254;107605;-76
2023/09/28 12:50:34;;;;;;;17.10;7.30;;;;;;;22.07;64.84;99693.27;105846;1254;95249;-75
2023/09/28 12:53:02;;;;;;;17.20;6.40;;;;;;;22.12;64.51;99694.65;106062;1250;95620;-76
2023/09/28 12:55:32;;;;;;;17.90;7.20;;;;;;;22.16;64.58;99691.36;105577;1252;109480;-75
2023/09/28 12:58:00;;;;;;;15.60;6.70;;;;;;;22.13;64.47;99693.80;105631;1251;95428;-74
2023/09/28 13:00:30;;;;;;;18.40;6.80;;;;;;;22.13;64.38;99690.29;105612;1250;107632;-76
2023/09/28 13:03:19;;;;;;;15.30;7.10;;;;;;;22.14;64.42;99689.95;106523;1256;95358;-75
2023/09/28 13:05:49;;;;;;;22.50;8.20;;;;;;;22.14;64.32;99688.28;105660;1255;95240;-75
2023/09/28 13:08:18;;;;;;;15.00;6.80;;;;;;;22.19;64.37;99686.39;105449;1254;108509;-75
2023/09/28 13:10:46;;;;;;;17.00;7.40;;;;;;;22.19;64.28;99688.11;106264;1250;95530;-76
2023/09/28 13:13:14;;;;;;;14.20;6.90;;;;;;;22.22;64.20;99684.67;105592;1256;108153;-77
2023/09/28 13:15:42;;;;;;;22.10;9.20;;;;;;;22.23;63.92;99679.90;105494;1254;96663;-75
2023/09/28 13:18:14;;;;;;;18.40;8.30;;;;;;;22.21;63.88;99679.64;105492;1250;95208;-76
2023/09/28 13:20:43;;;;;;;17.20;7.30;;;;;;;22.19;63.84;99679.81;106195;1251;107147;-75
2023/09/28 13:23:15;;;;;;;15.30;6.40;;;;;;;22.17;63.70;99682.89;105608;1254;95763;-77
2023/09/28 13:25:43;;;;;;;18.00;6.80;;;;;;;22.20;63.74;99679.23;105654;1255;107526;-75
2023/09/28 13:28:19;;;;;;;14.20;6.50;;;;;;;22.18;63.46;99675.59;105669;1255;96040;-76
2023/09/28 13:30:47;;;;;;;16.70;7.40;;;;;;;22.17;63.49;99677.00;105518;1254;95301;-75
2023/09/28 13:33:15;;;;;;;14.70;5.90;;;;;;;22.14;63.46;99669.86;108610;1250;108720;-75
2023/09/28 13:35:43;;;;;;;20.60;7.20;;;;;;;22.13;63.50;99670.57;106078;1254;95548;-75
2023/09/28 13:38:11;;;;;;;16.30;5.70;;;;;;;22.10;63.26;99667.83;105760;1250;107100;-73
2023/09/28 13:40:40;;;;;;;14.30;6.20;;;;;;;22.10;63.35;99668.75;106221;1256;95678;-75
2023/09/28 13:43:08;;;;;;;19.00;7.20;;;;;;;22.10;63.15;99671.05;106841;1254;95296;-74
2023/09/28 13:45:36;;;;;;;16.90;6.70;;;;;;;22.15;63.15;99665.83;105539;1257;106812;-72
2023/09/28 13:48:05;;;;;;;17.70;7.10;;;;;;;22.16;63.06;99662.98;105674;1255;95157;-74
2023/09/28 13:50:35;;;;;;;13.40;6.50;;;;;;;22.14;62.89;99663.20;105893;1253;109167;-73
2023/09/28 13:53:05;;;;;;;13.90;6.10;;;;;;;22.13;62.89;99657.51;105708;1256;95976;-75
2023/09/28 13:55:33;;;;;;;19.30;7.70;;;;;;;22.13;63.09;99660.29;105667;1254;95378;-75
2023/09/28 13:58:04;;;;;;;16.60;7.20;;;;;;;22.10;63.00;99656.63;105816;1256;108099;-74
2023/09/28 14:00:39;;;;;;;17.40;7.50;;;;;;;22.08;62.75;99660.25;105604;1251;95402;-73
2023/09/28 14:03:10;;;;;;;16.80;7.00;;;;;;;22.07;62.64;99660.02;108721;1253;107527;-75
2023/09/28 14:05:38;;;;;;;16.20;7.00;;;;;;;22.06;62.70;99662.08;106785;1256;95227;-74
2023/09/28 14:08:08;;;;;;;21.90;7.60;;;;;;;22.05;62.60;99659.55;105728;1254;95253;-75
2023/09/28 14:10:40;;;;;;;19.50;7.20;;;;;;;22.05;62.53;99659.51;106167;1258;108889;-75
2023/09/28 14:13:08;;;;;;;17.60;6.30;;;;;;;22.04;62.48;99657.98;105347;1256;95270;-75
2023/09/28 14:15:36;;;;;;;16.00;6.50;;;;;;;22.03;62.62;99657.88;105800;1254;107622;-74
2023/09/28 14:18:06;;;;;;;24.80;7.40;;;;;;;22.01;62.37;99655.46;105570;1254;96644;-75
2023/09/28 14:20:37;;;;;;;20.70;7.00;;;;;;;22.00;62.44;99653.06;105782;1253;97951;-76
2023/09/28 14:23:08;;;;;;;19.10;6.80;;;;;;;21.96;62.16;99652.18;105680;1254;110072;-76
2023/09/28 14:25:40;;;;;;;15.30;6.00;;;;;;;21.95;62.19;99650.70;106102;1253;96588;-76
2023/09/28 14:28:09;;;;;;;14.20;6.30;;;;;;;21.92;62.13;99648.50;106041;1254;107276;-75
2023/09/28 14:30:37;;;;;;;17.10;7.10;;;;;;;21.90;62.10;99646.36;105722;1257;97912;-75
2023/09/28 14:33:05;;;;;;;16.80;7.50;;;;;;;21.91;62.06;99649.41;105687;1254;96718;-75
2023/09/28 14:35:36;;;;;;;16.10;7.20;;;;;;;21.87;62.17;99650.26;105362;1255;109834;-75
2023/09/28 14:38:04;;;;;;;20.50;7.30;;;;;;;21.85;62.02;99652.15;106249;1250;96594;-76
2023/09/28 14:40:32;;;;;;;18.10;7.40;;;;;;;21.81;62.00;99647.93;108198;1251;107256;-75
2023/09/28 14:43:03;;;;;;;17.80;7.20;;;;;;;21.78;62.05;99649.20;108697;1253;94548;-77
2023/09/28 14:45:31;;;;;;;16.40;7.10;;;;;;;21.75;61.95;99648.42;107776;1250;96545;-76
2023/09/28 14:47:59;;;;;;;15.80;7.10;;;;;;;21.73;61.87;99648.38;105504;1257;110057;-76
2023/09/28 14:50:28;;;;;;;16.80;6.70;;;;;;;21.71;61.88;99650.98;107057;1250;96510;-76
2023/09/28 14:52:56;;;;;;;17.80;8.10;;;;;;;21.68;61.73;99652.58;105482;1252;107163;-75
2023/09/28 14:55:24;;;;;;;16.40;7.30;;;;;;;21.66;61.78;99652.10;105582;1253;96559;-75
2023/09/28 14:57:53;;;;;;;18.40;8.10;;;;;;;21.63;61.80;99651.11;105824;1254;96524;-75
2023/09/28 15:00:23;;;;;;;16.60;7.80;;;;;;;21.62;61.74;99656.69;105979;1250;109879;-76
2023/09/28 15:02:51;;;;;;;18.50;7.80;;;;;;;21.57;61.69;99656.95;105960;1255;96730;-75
2023/09/28 15:05:19;;;;;;;18.00;7.30;;;;;;;21.54;61.57;99657.46;105399;1256;107646;-75
2023/09/28 15:07:49;;;;;;;20.50;8.20;;;;;;;21.51;61.72;99656.37;106080;1251;96824;-74
2023/09/28 15:10:22;;;;;;;22.40;7.60;;;;;;;21.47;61.65;99653.96;105706;1255;96561;-75
2023/09/28 15:12:51;;;;;;;17.80;7.90;;;;;;;21.42;61.63;99653.35;105827;1251;110854;-74
2023/09/28 15:15:20;;;;;;;22.90;8.00;;;;;;;21.38;61.60;99653.23;108839;1250;95409;-74
2023/09/28 15:17:48;;;;;;;18.40;7.90;;;;;;;21.34;61.63;99655.92;106162;1254;107644;-74
2023/09/28 15:20:16;;;;;;;21.80;8.00;;;;;;;21.28;61.63;99654.52;108165;1251;95380;-75
2023/09/28 15:22:48;;;;;;;20.70;7.80;;;;;;;21.23;61.76;99654.67;107334;1250;96616;-75
2023/09/28 15:25:16;;;;;;;17.50;7.40;;;;;;;21.18;61.67;99656.74;106211;1251;108532;-76
2023/09/28 15:27:44;;;;;;;21.20;8.50;;;;;;;21.11;61.68;99654.16;106378;1254;96572;-75
2023/09/28 15:30:14;;;;;;;18.30;8.00;;;;;;;21.05;61.64;99649.41;105437;1256;107164;-76
2023/09/28 15:32:45;;;;;;;19.90;8.20;;;;;;;21.00;61.93;99651.02;105745;1256;96538;-76
2023/09/28 15:35:13;;;;;;;18.70;8.50;;;;;;;20.93;61.97;99648.30;105820;1254;96510;-76
2023/09/28 15:37:45;;;;;;;21.70;8.30;;;;;;;20.87;61.84;99652.95;108731;1253;109359;-74
2023/09/28 15:40:13;;;;;;;19.40;8.20;;;;;;;20.79;61.94;99651.79;108315;1254;95296;-76
2023/09/28 15:42:42;;;;;;;19.50;7.90;;;;;;;20.72;61.90;99651.81;108774;1253;107128;-74
2023/09/28 15:45:11;;;;;;;20.80;8.30;;;;;;;20.66;62.03;99655.68;108720;1250;94501;-73
2023/09/28 15:47:41;;;;;;;24.70;9.50;;;;;;;20.58;62.06;99655.05;108762;1251;94668;-74
2023/09/28 15:50:11;;;;;;;18.80;7.90;;;;;;;20.52;62.04;99656.04;108149;1254;111261;-75